Dades meteomassalio
Diari Summary for Diciembre 7, 2017 Units:  English    Metric   Both
« Previous Day
Next Day »
Diari Semanal Mensual Anual Personalitzat
  Maxima: Minima: Mijana:
Temperatura: TemperatureC °F -8.3 °F -2.1 °F
Rosada: DewpointC °F -9.7 °F -5.2 °F
Humitat: Humidity % 58 % 80 %
Velocitat del vent: WindSpeedKMH mph 0.0 mph 0.9 mph
Racha vent: WindSpeedGustKMH mph - -
Vent:- - SW
Pressio: PressurehPa in 1032.7 in -
Pluja: 0.0 in    
Historical Graphs
 
 
Tabular Data for Diciembre 7, 2017
Time Temperature Dew Point Pressure Wind Wind Speed Wind Gust Humidity Rainfall Rate (Hourly) solar Conditions
TemperatureC °F DewpointC °F PressurehPa in Calm     Humidity % HourlyPrecipMM in SolarRadiationWatts/m^2 W/m2 Conditions
00:04 -5.6 °F -7.4 °F 1037.5 in WSW 5.6 mph 5.6 mph 87 % 0.0 in 0.0 W/m2 RA
00:09 -5.6 °F -7.2 °F 1037.5 in Calm     88 % 0.0 in 0.0 W/m2 CLR
00:14 -5.6 °F -7.2 °F 1037.5 in Calm     88 % 0.0 in 0.0 W/m2 CLR
00:19 -6.1 °F -7.8 °F 1037.1 in WSW 3.7 mph 3.7 mph 88 % 0.0 in 0.0 W/m2 CLR
00:24 -6.1 °F -7.8 °F 1037.1 in WSW 5.6 mph 5.6 mph 88 % 0.0 in 0.0 W/m2 CLR
00:29 -6.1 °F -7.8 °F 1037.1 in WSW 3.7 mph 3.7 mph 88 % 0.0 in 0.0 W/m2 CLR
00:34 -6.1 °F -7.8 °F 1037.1 in WSW 1.9 mph 1.9 mph 88 % 0.0 in 0.0 W/m2 CLR
00:39 -6.1 °F -7.8 °F 1037.1 in Calm     88 % 0.0 in 0.0 W/m2 CLR
00:44 -6.1 °F -7.9 °F 1037.1 in Calm     87 % 0.0 in 0.0 W/m2 CLR
00:49 -6.1 °F -7.8 °F 1037.1 in Calm     88 % 0.0 in 0.0 W/m2 CLR
00:54 -6.1 °F -7.8 °F 1037.1 in West 5.6 mph 5.6 mph 88 % 0.0 in 0.0 W/m2 CLR
00:59 -6.1 °F -7.8 °F 1037.1 in Calm     88 % 0.0 in 0.0 W/m2 CLR
01:04 -6.1 °F -7.8 °F 1037.1 in Calm     88 % 0.0 in 0.0 W/m2 CLR
01:05 -6.1 °F -7.8 °F 1037.1 in Calm     88 % 0.0 in 0.0 W/m2 CLR
01:10 -5.6 °F -7.4 °F 1036.8 in Calm     87 % 0.0 in 0.0 W/m2 CLR
01:15 -5.6 °F -7.2 °F 1036.8 in West 1.9 mph   88 % 0.0 in 0.0 W/m2 CLR
01:20 -6.1 °F -7.8 °F 1036.8 in West 1.6 mph 1.6 mph 88 % 0.0 in 0.0 W/m2 CLR
01:25 -6.1 °F -7.6 °F 1036.8 in West 3.7 mph 3.7 mph 89 % 0.0 in 0.0 W/m2 CLR
01:30 -6.1 °F -7.6 °F 1036.8 in West 3.7 mph 3.7 mph 89 % 0.0 in 0.0 W/m2 CLR
01:35 -6.1 °F -7.8 °F 1036.8 in Calm     88 % 0.0 in 0.0 W/m2 CLR
01:40 -6.1 °F -7.8 °F 1036.5 in Calm     88 % 0.0 in 0.0 W/m2 CLR
01:45 -6.1 °F -7.8 °F 1036.5 in Calm     88 % 0.0 in 0.0 W/m2 CLR
01:50 -5.6 °F -7.2 °F 1036.5 in Calm     88 % 0.0 in 0.0 W/m2 CLR
01:55 -5.6 °F -7.2 °F 1036.5 in West 5.6 mph 5.6 mph 88 % 0.0 in 0.0 W/m2 CLR
02:00 -5.6 °F -7.1 °F 1036.5 in WSW 6.4 mph 6.4 mph 89 % 0.0 in 0.0 W/m2 CLR
02:05 -6.1 °F -7.6 °F 1036.5 in WSW 5.6 mph 5.6 mph 89 % 0.0 in 0.0 W/m2 CLR
02:10 -6.1 °F -7.6 °F 1036.5 in Calm     89 % 0.0 in 0.0 W/m2 CLR
02:15 -6.1 °F -7.6 °F 1036.5 in Calm     89 % 0.0 in 0.0 W/m2 CLR
02:20 -6.1 °F -7.6 °F 1036.5 in WSW 1.6 mph 1.6 mph 89 % 0.0 in 0.0 W/m2 CLR
02:25 -6.1 °F -7.6 °F 1036.5 in Calm     89 % 0.0 in 0.0 W/m2 CLR
02:30 -6.1 °F -7.6 °F 1036.5 in Calm     89 % 0.0 in 0.0 W/m2 CLR
02:35 -6.7 °F -8.1 °F 1036.5 in Calm     90 % 0.0 in 0.0 W/m2 CLR
02:40 -6.7 °F -8.2 °F 1036.5 in Calm     89 % 0.0 in 0.0 W/m2 CLR
02:45 -6.7 °F -8.2 °F 1036.5 in Calm     89 % 0.0 in 0.0 W/m2 CLR
02:50 -6.7 °F -8.2 °F 1036.5 in Calm     89 % 0.0 in 0.0 W/m2 CLR
02:55 -6.7 °F -8.2 °F 1036.5 in West 5.6 mph 5.6 mph 89 % 0.0 in 0.0 W/m2 CLR
03:00 -6.7 °F -8.2 °F 1036.5 in Calm     89 % 0.0 in 0.0 W/m2 CLR
03:05 -6.7 °F -8.1 °F 1036.8 in Calm     90 % 0.0 in 0.0 W/m2 CLR
03:10 -6.7 °F -8.1 °F 1036.8 in West 1.9 mph   90 % 0.0 in 0.0 W/m2 CLR
03:15 -6.7 °F -8.1 °F 1036.8 in Calm     90 % 0.0 in 0.0 W/m2 CLR
03:20 -6.7 °F -8.2 °F 1036.8 in Calm     89 % 0.0 in 0.0 W/m2 CLR
03:25 -6.7 °F -8.1 °F 1036.8 in Calm     90 % 0.0 in 0.0 W/m2 CLR
03:30 -6.7 °F -8.1 °F 1036.5 in Calm     90 % 0.0 in 0.0 W/m2 CLR
03:35 -6.7 °F -8.2 °F 1036.5 in Calm     89 % 0.0 in 0.0 W/m2 CLR
03:40 -6.7 °F -8.1 °F 1036.5 in Calm     90 % 0.0 in 0.0 W/m2 CLR
03:45 -6.7 °F -8.1 °F 1036.5 in Calm     90 % 0.0 in 0.0 W/m2 CLR
03:50 -6.7 °F -8.2 °F 1036.5 in Calm     89 % 0.0 in 0.0 W/m2 CLR
03:55 -7.2 °F -8.7 °F 1036.5 in Calm     89 % 0.0 in 0.0 W/m2 CLR
04:00 -7.2 °F -8.7 °F 1036.5 in Calm     89 % 0.0 in 0.0 W/m2 CLR
04:05 -7.2 °F -8.7 °F 1036.5 in Calm     89 % 0.0 in 0.0 W/m2 CLR
04:11 -7.2 °F -8.7 °F 1036.5 in Calm     89 % 0.0 in 0.0 W/m2 CLR
04:16 -7.2 °F -8.6 °F 1036.5 in Calm     90 % 0.0 in 0.0 W/m2 CLR
04:21 -7.2 °F -8.6 °F 1036.5 in Calm     90 % 0.0 in 0.0 W/m2 CLR
04:22 -7.2 °F -8.6 °F 1036.5 in Calm     90 % 0.0 in 0.0 W/m2 CLR
04:23 -7.2 °F -8.6 °F 1036.5 in Calm     90 % 0.0 in 0.0 W/m2 CLR
04:28 -7.2 °F -8.6 °F 1036.1 in Calm     90 % 0.0 in 0.0 W/m2 CLR
04:33 -7.2 °F -8.6 °F 1036.1 in West 5.6 mph 5.6 mph 90 % 0.0 in 0.0 W/m2 CLR
04:38 -7.2 °F -8.6 °F 1036.1 in West 3.7 mph 3.7 mph 90 % 0.0 in 0.0 W/m2 CLR
04:43 -7.2 °F -8.6 °F 1036.1 in Calm     90 % 0.0 in 0.0 W/m2 CLR
04:48 -7.8 °F -9.1 °F 1036.1 in Calm     90 % 0.0 in 0.0 W/m2 CLR
04:53 -7.8 °F -9.1 °F 1036.1 in Calm     90 % 0.0 in 0.0 W/m2 CLR
04:58 -7.8 °F -9.3 °F 1036.1 in Calm     89 % 0.0 in 0.0 W/m2 CLR
05:03 -7.8 °F -9.3 °F 1036.1 in Calm     89 % 0.0 in 0.0 W/m2 CLR
05:08 -7.8 °F -9.3 °F 1036.1 in West 1.9 mph 1.9 mph 89 % 0.0 in 0.0 W/m2 CLR
05:13 -7.8 °F -9.1 °F 1036.1 in Calm     90 % 0.0 in 0.0 W/m2 CLR
05:18 -7.8 °F -9.1 °F 1036.1 in Calm     90 % 0.0 in 0.0 W/m2 CLR
05:23 -7.8 °F -9.1 °F 1036.1 in Calm     90 % 0.0 in 0.0 W/m2 CLR
05:28 -7.2 °F -8.6 °F 1036.1 in Calm     90 % 0.0 in 0.0 W/m2 CLR
05:33 -7.2 °F -8.6 °F 1036.1 in Calm     90 % 0.0 in 0.0 W/m2 CLR
05:38 -7.2 °F -8.6 °F 1035.8 in West 3.7 mph 3.7 mph 90 % 0.0 in 0.0 W/m2 CLR
05:43 -7.2 °F -8.6 °F 1035.8 in Calm     90 % 0.0 in 0.0 W/m2 CLR
05:48 -7.2 °F -8.6 °F 1035.8 in West 3.7 mph 3.7 mph 90 % 0.0 in 0.0 W/m2 CLR
05:53 -7.2 °F -8.6 °F 1035.8 in Calm     90 % 0.0 in 0.0 W/m2 CLR
05:58 -7.2 °F -8.6 °F 1035.8 in Calm     90 % 0.0 in 0.0 W/m2 CLR
06:03 -7.2 °F -8.6 °F 1035.8 in Calm     90 % 0.0 in 0.0 W/m2 CLR
06:08 -7.2 °F -8.6 °F 1035.8 in WSW 5.6 mph 5.6 mph 90 % 0.0 in 0.0 W/m2 CLR
06:13 -7.2 °F -8.6 °F 1035.8 in WSW 6.4 mph 6.4 mph 90 % 0.0 in 0.0 W/m2 CLR
06:18 -7.2 °F -8.6 °F 1035.4 in West 7.4 mph 7.4 mph 90 % 0.0 in 0.0 W/m2 CLR
06:23 -7.8 °F -9.1 °F 1035.4 in Calm     90 % 0.0 in 0.0 W/m2 CLR
06:28 -7.8 °F -9.1 °F 1035.4 in Calm     90 % 0.0 in 0.0 W/m2 CLR
06:33 -7.8 °F -9.1 °F 1035.4 in Calm     90 % 0.0 in 0.0 W/m2 CLR
06:38 -7.8 °F -9.1 °F 1035.4 in Calm     90 % 0.0 in 0.0 W/m2 CLR
06:43 -7.8 °F -9.1 °F 1035.4 in West 9.3 mph 9.3 mph 90 % 0.0 in 0.0 W/m2 CLR
06:48 -7.8 °F -9.0 °F 1035.4 in West 3.7 mph 3.7 mph 91 % 0.0 in 0.0 W/m2 CLR
06:53 -7.8 °F -9.1 °F 1035.4 in Calm     90 % 0.0 in 0.0 W/m2 CLR
06:58 -7.8 °F -9.1 °F 1035.8 in Calm     90 % 0.0 in 0.0 W/m2 CLR
07:03 -7.8 °F -9.1 °F 1035.8 in Calm     90 % 0.0 in 0.0 W/m2 CLR
07:08 -7.8 °F -9.1 °F 1035.8 in Calm     90 % 0.0 in 0.0 W/m2 CLR
07:13 -8.3 °F -9.7 °F 1035.8 in West 3.7 mph 3.7 mph 90 % 0.0 in 0.0 W/m2 CLR
07:15 -8.3 °F -9.7 °F 1035.8 in West 1.9 mph 1.9 mph 90 % 0.0 in 0.0 W/m2 CLR
07:20 -8.3 °F -9.6 °F 1035.8 in West 3.7 mph 3.7 mph 91 % 0.0 in 0.0 W/m2 CLR
07:25 -8.3 °F -9.7 °F 1035.8 in Calm     90 % 0.0 in 0.0 W/m2 CLR
07:30 -7.8 °F -9.1 °F 1035.8 in West 9.7 mph 9.7 mph 90 % 0.0 in 0.0 W/m2 CLR
07:35 -7.8 °F -9.0 °F 1035.8 in West 5.6 mph 5.6 mph 91 % 0.0 in 0.0 W/m2 CLR
07:40 -7.8 °F -9.1 °F 1036.1 in Calm     90 % 0.0 in 0.0 W/m2 CLR
07:45 -7.8 °F -9.1 °F 1036.1 in Calm     90 % 0.0 in 0.0 W/m2 CLR
07:50 -8.3 °F -9.7 °F 1036.1 in Calm     90 % 0.0 in 0.0 W/m2 CLR
07:55 -7.8 °F -9.1 °F 1036.1 in West 9.3 mph 9.3 mph 90 % 0.0 in 0.0 W/m2 CLR
08:00 -7.8 °F -9.1 °F 1035.8 in West 5.6 mph 5.6 mph 90 % 0.0 in 5.0 W/m2 CLR
08:05 -7.2 °F -8.4 °F 1036.1 in Calm     91 % 0.0 in 9.0 W/m2 OVC
08:10 -7.2 °F -8.6 °F 1036.1 in Calm     90 % 0.0 in 12.0 W/m2 OVC
08:15 -7.2 °F -8.6 °F 1035.8 in Calm     90 % 0.0 in 14.0 W/m2 BKN
08:20 -7.2 °F -8.6 °F 1035.8 in Calm     90 % 0.0 in 14.0 W/m2 BKN
08:25 -7.2 °F -8.6 °F 1035.8 in Calm     90 % 0.0 in 18.0 W/m2 BKN
08:30 -7.2 °F -8.6 °F 1036.1 in West 1.9 mph 1.9 mph 90 % 0.0 in 25.0 W/m2 BKN
08:35 -7.2 °F -8.6 °F 1036.1 in Calm     90 % 0.0 in 37.0 W/m2 BKN
08:40 -7.2 °F -8.4 °F 1036.1 in West 5.6 mph 5.6 mph 91 % 0.0 in 49.0 W/m2 SCT
08:45 -6.7 °F -7.9 °F 1036.1 in Calm     91 % 0.0 in 63.0 W/m2 SCT
08:50 -6.7 °F -7.9 °F 1035.8 in Calm     91 % 0.0 in 76.0 W/m2 FEW
08:55 -6.1 °F -7.5 °F 1036.1 in Calm     90 % 0.0 in 67.0 W/m2 FEW
09:00 -6.1 °F -7.6 °F 1036.1 in Calm     89 % 0.0 in 70.0 W/m2 FEW
09:01 -6.1 °F -7.6 °F 1036.1 in Calm     89 % 0.0 in 70.0 W/m2 FEW
09:06 -5.6 °F -6.9 °F 1036.1 in Calm     90 % 0.0 in 83.0 W/m2 FEW
09:11 -5.6 °F -6.9 °F 1036.1 in Calm     90 % 0.0 in 100.0 W/m2 CLR
09:16 -5.6 °F -7.1 °F 1036.1 in Calm     89 % 0.0 in 109.0 W/m2 CLR
09:21 -5.0 °F -6.6 °F 1036.1 in Calm     89 % 0.0 in 109.0 W/m2 CLR
09:26 -4.4 °F -6.0 °F 1036.1 in Calm     89 % 0.0 in 104.0 W/m2 CLR
09:31 -4.4 °F -6.0 °F 1036.5 in Calm     89 % 0.0 in 121.0 W/m2 CLR
09:36 -4.4 °F -6.0 °F 1036.5 in Calm     89 % 0.0 in 132.0 W/m2 CLR
09:41 -3.9 °F -5.3 °F 1036.5 in Calm     90 % 0.0 in 155.0 W/m2 CLR
09:46 -3.9 °F -5.4 °F 1036.5 in Calm     89 % 0.0 in 165.0 W/m2 CLR
09:51 -3.3 °F -4.9 °F 1036.5 in Calm     89 % 0.0 in 139.0 W/m2 CLR
09:56 -3.3 °F -5.1 °F 1036.8 in Calm     88 % 0.0 in 139.0 W/m2 CLR
10:01 -2.8 °F -4.5 °F 1036.8 in Calm     88 % 0.0 in 149.0 W/m2 CLR
10:06 -2.8 °F -4.7 °F 1036.8 in Calm     87 % 0.0 in 144.0 W/m2 CLR
10:11 -2.2 °F -4.1 °F 1036.8 in Calm     87 % 0.0 in 163.0 W/m2 CLR
10:16 -2.2 °F -4.1 °F 1036.8 in Calm     87 % 0.0 in 174.0 W/m2 CLR
10:21 -1.7 °F -3.6 °F 1036.8 in Calm     87 % 0.0 in 192.0 W/m2 CLR
10:26 -1.7 °F -3.6 °F 1036.8 in Calm     87 % 0.0 in 223.0 W/m2 CLR
10:31 -1.7 °F -3.7 °F 1036.8 in Calm     86 % 0.0 in 192.0 W/m2 CLR
10:36 -1.1 °F -3.3 °F 1036.8 in Calm     85 % 0.0 in 232.0 W/m2 CLR
10:41 -0.6 °F -2.8 °F 1037.1 in Calm     85 % 0.0 in 253.0 W/m2 CLR
10:46 -0.6 °F -2.9 °F 1037.1 in Calm     84 % 0.0 in 162.0 W/m2 CLR
10:51 0.0 °F -2.4 °F 1037.1 in Calm     84 % 0.0 in 204.0 W/m2 CLR
10:56 0.0 °F -2.6 °F 1037.5 in Calm     83 % 0.0 in 225.0 W/m2 CLR
11:01 0.6 °F -2.0 °F 1037.1 in Calm     83 % 0.0 in 221.0 W/m2 CLR
11:06 0.6 °F -2.3 °F 1037.1 in Calm     81 % 0.0 in 327.0 W/m2 CLR
11:11 1.1 °F -1.6 °F 1037.1 in Calm     82 % 0.0 in 394.0 W/m2 CLR
11:16 1.7 °F -1.2 °F 1037.1 in Calm     81 % 0.0 in 410.0 W/m2 CLR
11:21 1.7 °F -1.6 °F 1037.1 in Calm     79 % 0.0 in 174.0 W/m2 CLR
11:26 2.2 °F -1.2 °F 1037.1 in Calm     78 % 0.0 in 169.0 W/m2 CLR
11:31 2.2 °F -1.4 °F 1036.8 in Calm     77 % 0.0 in 165.0 W/m2 CLR
11:36 2.2 °F -1.4 °F 1036.8 in Calm     77 % 0.0 in 167.0 W/m2 CLR
11:41 2.8 °F -0.8 °F 1036.8 in Calm     77 % 0.0 in 206.0 W/m2 CLR
11:46 2.8 °F -0.8 °F 1036.5 in Calm     77 % 0.0 in 283.0 W/m2 CLR
11:51 2.8 °F -0.8 °F 1036.5 in Calm     77 % 0.0 in 338.0 W/m2 CLR
11:56 3.3 °F -0.5 °F 1036.5 in Calm     76 % 0.0 in 271.0 W/m2 CLR
12:01 3.3 °F -0.7 °F 1036.1 in Calm     75 % 0.0 in 230.0 W/m2 CLR
12:06 3.3 °F -0.9 °F 1035.8 in Calm     74 % 0.0 in 244.0 W/m2 CLR
12:11 3.3 °F -1.1 °F 1035.8 in Calm     73 % 0.0 in 253.0 W/m2 CLR
12:16 3.9 °F -0.5 °F 1035.8 in Calm     73 % 0.0 in 404.0 W/m2 CLR
12:21 4.4 °F -0.2 °F 1035.8 in Calm     72 % 0.0 in 436.0 W/m2 CLR
12:26 5.0 °F 0.2 °F 1035.8 in Calm     71 % 0.0 in 404.0 W/m2 CLR
12:31 5.0 °F 0.0 °F 1035.8 in Calm     70 % 0.0 in 353.0 W/m2 CLR
12:36 5.6 °F 0.1 °F 1035.4 in Calm     68 % 0.0 in 357.0 W/m2 CLR
12:41 5.6 °F 0.1 °F 1035.4 in Calm     68 % 0.0 in 315.0 W/m2 CLR
12:46 6.1 °F 0.4 °F 1035.4 in Calm     67 % 0.0 in 297.0 W/m2 CLR
12:51 6.1 °F 0.2 °F 1035.4 in Calm     66 % 0.0 in 387.0 W/m2 CLR
12:56 6.1 °F 0.2 °F 1035.4 in Calm   0.2 mph 66 % 0.0 in 359.0 W/m2 CLR
13:01 6.1 °F 0.0 °F 1035.1 in Calm     65 % 0.0 in 359.0 W/m2 CLR
13:06 6.7 °F 0.6 °F 1035.1 in Calm     65 % 0.0 in 350.0 W/m2 CLR
13:11 6.7 °F 0.3 °F 1035.1 in Calm     64 % 0.0 in 290.0 W/m2 CLR
13:16 6.7 °F 0.3 °F 1035.1 in Calm     64 % 0.0 in 246.0 W/m2 CLR
13:21 6.7 °F 0.1 °F 1034.8 in East 3.7 mph 3.7 mph 63 % 0.0 in 420.0 W/m2 CLR
13:26 7.2 °F 0.4 °F 1034.8 in East 5.6 mph 5.6 mph 62 % 0.0 in 353.0 W/m2 CLR
13:36 6.7 °F 0.1 °F 1034.8 in ENE 5.6 mph 5.6 mph 63 % 0.0 in 248.0 W/m2 CLR
13:41 6.7 °F 0.1 °F 1034.8 in East 9.7 mph 9.7 mph 63 % 0.0 in 262.0 W/m2 CLR
13:46 6.7 °F 0.1 °F 1034.8 in ENE 13.0 mph 13.0 mph 63 % 0.0 in 227.0 W/m2 CLR
13:51 6.1 °F -0.2 °F 1034.8 in ENE 9.3 mph 9.3 mph 64 % 0.0 in 239.0 W/m2 CLR
13:56 6.1 °F 0.0 °F 1034.8 in ENE 5.6 mph 5.6 mph 65 % 0.0 in 359.0 W/m2 CLR
14:06 6.7 °F 0.6 °F 1034.8 in East 17.7 mph 17.7 mph 65 % 0.0 in 197.0 W/m2 CLR
14:26 6.1 °F 0.2 °F 1034.4 in ENE 1.9 mph 1.9 mph 66 % 0.0 in 214.0 W/m2 CLR
14:31 6.1 °F 0.2 °F 1034.4 in East 9.3 mph 9.3 mph 66 % 0.0 in 220.0 W/m2 CLR
14:36 6.1 °F 0.2 °F 1034.1 in Calm     66 % 0.0 in 232.0 W/m2 CLR
14:46 6.7 °F 0.8 °F 1034.1 in Calm     66 % 0.0 in 248.0 W/m2 CLR
14:51 6.7 °F 0.6 °F 1034.1 in Calm     65 % 0.0 in 241.0 W/m2 CLR
14:56 6.7 °F 0.3 °F 1033.7 in Calm     64 % 0.0 in 211.0 W/m2 CLR
15:01 7.2 °F 0.8 °F 1033.7 in Calm     64 % 0.0 in 209.0 W/m2 CLR
15:06 7.2 °F 0.8 °F 1033.7 in Calm     64 % 0.0 in 241.0 W/m2 CLR
15:07 7.2 °F 0.8 °F 1033.7 in Calm     64 % 0.0 in 204.0 W/m2 CLR
15:12 7.2 °F 0.8 °F 1033.7 in Calm     64 % 0.0 in 281.0 W/m2 CLR
15:17 7.2 °F 0.7 °F 1033.7 in Calm     63 % 0.0 in 339.0 W/m2 CLR
15:22 7.8 °F 0.9 °F 1033.7 in Calm     62 % 0.0 in 357.0 W/m2 CLR
15:25 7.8 °F 0.9 °F 1033.7 in Calm     62 % 0.0 in 341.0 W/m2 CLR
15:28 7.8 °F 0.7 °F 1033.7 in Calm     61 % 0.0 in 373.0 W/m2 CLR
15:33 7.8 °F 0.5 °F 1033.7 in Calm     60 % 0.0 in 352.0 W/m2 CLR
15:38 8.3 °F 1.0 °F 1033.4 in Calm     60 % 0.0 in 352.0 W/m2 CLR
15:43 8.3 °F 0.8 °F 1033.7 in Calm     59 % 0.0 in 148.0 W/m2 CLR
15:48 7.8 °F 0.3 °F 1033.7 in Calm     59 % 0.0 in 128.0 W/m2 CLR
15:53 7.8 °F 0.5 °F 1033.4 in Calm     60 % 0.0 in 134.0 W/m2 CLR
15:58 7.8 °F 0.5 °F 1033.4 in Calm     60 % 0.0 in 176.0 W/m2 CLR
16:03 7.8 °F 0.5 °F 1033.4 in Calm     60 % 0.0 in 258.0 W/m2 CLR
16:08 7.8 °F 0.3 °F 1033.7 in Calm     59 % 0.0 in 163.0 W/m2 CLR
16:13 7.8 °F 0.0 °F 1033.7 in Calm     58 % 0.0 in 83.0 W/m2 CLR
16:18 7.2 °F -0.5 °F 1033.7 in Calm     58 % 0.0 in 148.0 W/m2 CLR
16:23 7.2 °F -0.5 °F 1033.4 in Calm     58 % 0.0 in 123.0 W/m2 CLR
16:25 7.2 °F -0.3 °F 1033.4 in Calm     59 % 0.0 in 114.0 W/m2 CLR
16:30 6.7 °F -0.8 °F 1033.7 in Calm     59 % 0.0 in 84.0 W/m2 CLR
16:35 6.7 °F -0.8 °F 1033.7 in Calm     59 % 0.0 in 67.0 W/m2 FEW
16:40 6.7 °F -0.8 °F 1033.4 in Calm     59 % 0.0 in 51.0 W/m2 SCT
16:45 6.1 °F -1.1 °F 1033.4 in Calm     60 % 0.0 in 47.0 W/m2 SCT
16:50 6.1 °F -1.1 °F 1033.4 in Calm     60 % 0.0 in 40.0 W/m2 SCT
16:55 5.6 °F -1.4 °F 1033.4 in Calm     61 % 0.0 in 33.0 W/m2 BKN
17:00 5.6 °F -1.2 °F 1033.4 in Calm     62 % 0.0 in 23.0 W/m2 BKN
17:05 5.0 °F -1.7 °F 1033.1 in Calm     62 % 0.0 in 18.0 W/m2 BKN
17:10 4.4 °F -2.0 °F 1033.1 in Calm     63 % 0.0 in 16.0 W/m2 BKN
17:15 3.9 °F -2.5 °F 1033.4 in Calm     63 % 0.0 in 16.0 W/m2 BKN
17:20 3.3 °F -2.8 °F 1033.4 in Calm     64 % 0.0 in 14.0 W/m2 BKN
17:25 2.8 °F -3.4 °F 1033.4 in Calm     64 % 0.0 in 11.0 W/m2 BKN
17:30 2.8 °F -3.2 °F 1033.4 in Calm     65 % 0.0 in 7.0 W/m2 BKN
17:35 2.2 °F -3.5 °F 1033.4 in Calm     66 % 0.0 in 5.0 W/m2 OVC
17:40 2.2 °F -3.5 °F 1033.4 in Calm     66 % 0.0 in 0.0 W/m2 OVC
17:45 1.7 °F -4.0 °F 1033.4 in Calm     66 % 0.0 in 0.0 W/m2 CLR
17:50 1.7 °F -4.2 °F 1033.4 in Calm     65 % 0.0 in 0.0 W/m2 CLR
17:55 1.1 °F -4.3 °F 1033.4 in Calm     67 % 0.0 in 0.0 W/m2 CLR
18:00 1.1 °F -4.3 °F 1033.4 in Calm     67 % 0.0 in 0.0 W/m2 CLR
18:05 1.1 °F -3.9 °F 1033.7 in Calm     69 % 0.0 in 0.0 W/m2 CLR
18:15 0.6 °F -4.5 °F 1033.7 in Calm     69 % 0.0 in 0.0 W/m2 CLR
18:20 0.6 °F -4.5 °F 1033.7 in Calm     69 % 0.0 in 0.0 W/m2 CLR
18:25 0.0 °F -4.8 °F 1033.7 in Calm     70 % 0.0 in 0.0 W/m2 CLR
18:31 0.0 °F -4.8 °F 1033.7 in Calm     70 % 0.0 in 0.0 W/m2 CLR
18:36 0.6 °F -4.1 °F 1033.7 in Calm     71 % 0.0 in 0.0 W/m2 CLR
18:41 0.6 °F -3.9 °F 1033.7 in Calm     72 % 0.0 in 0.0 W/m2 CLR
18:46 0.6 °F -3.9 °F 1033.7 in Calm     72 % 0.0 in 0.0 W/m2 CLR
18:51 0.6 °F -3.7 °F 1033.7 in Calm     73 % 0.0 in 0.0 W/m2 CLR
18:56 0.6 °F -3.6 °F 1033.7 in Calm     74 % 0.0 in 0.0 W/m2 CLR
19:01 0.0 °F -4.3 °F 1033.7 in Calm     73 % 0.0 in 0.0 W/m2 CLR
19:11 -0.6 °F -4.6 °F 1033.7 in Calm     74 % 0.0 in 0.0 W/m2 CLR
19:22 -1.1 °F -5.0 °F 1033.7 in Calm     75 % 0.0 in 0.0 W/m2 CLR
19:27 -1.1 °F -5.0 °F 1034.1 in Calm     75 % 0.0 in 0.0 W/m2 CLR
19:32 -0.6 °F -4.1 °F 1034.1 in Calm     77 % 0.0 in 0.0 W/m2 CLR
19:43 -1.1 °F -4.4 °F 1034.1 in Calm     78 % 0.0 in 0.0 W/m2 CLR
19:48 -1.7 °F -5.0 °F 1034.1 in Calm     78 % 0.0 in 0.0 W/m2 CLR
19:53 -1.7 °F -4.8 °F 1034.1 in Calm     79 % 0.0 in 0.0 W/m2 CLR
19:58 -1.7 °F -4.8 °F 1034.1 in Calm     79 % 0.0 in 0.0 W/m2 CLR
20:03 -2.2 °F -5.6 °F 1034.1 in Calm     78 % 0.0 in 0.0 W/m2 CLR
20:08 -2.2 °F -5.4 °F 1034.1 in Calm     79 % 0.0 in 0.0 W/m2 CLR
20:13 -2.8 °F -5.9 °F 1034.1 in Calm     79 % 0.0 in 0.0 W/m2 CLR
20:18 -2.8 °F -5.7 °F 1033.7 in Calm     80 % 0.0 in 0.0 W/m2 CLR
20:23 -2.8 °F -5.7 °F 1033.7 in Calm     80 % 0.0 in 0.0 W/m2 CLR
20:28 -2.8 °F -5.7 °F 1033.7 in Calm     80 % 0.0 in 0.0 W/m2 CLR
20:38 -3.3 °F -6.3 °F 1033.7 in Calm     80 % 0.0 in 0.0 W/m2 CLR
20:43 -2.8 °F -5.7 °F 1033.7 in Calm     80 % 0.0 in 0.0 W/m2 CLR
20:48 -2.8 °F -5.6 °F 1033.7 in Calm     81 % 0.0 in 0.0 W/m2 CLR
20:58 -2.8 °F -5.6 °F 1033.7 in Calm     81 % 0.0 in 0.0 W/m2 CLR
21:03 -2.8 °F -5.6 °F 1033.7 in Calm     81 % 0.0 in 0.0 W/m2 CLR
21:08 -2.8 °F -5.6 °F 1033.7 in Calm     81 % 0.0 in 0.0 W/m2 CLR
21:13 -2.8 °F -5.6 °F 1033.4 in Calm     81 % 0.0 in 0.0 W/m2 CLR
21:18 -3.3 °F -6.1 °F 1033.4 in Calm     81 % 0.0 in 0.0 W/m2 CLR
21:23 -3.3 °F -5.9 °F 1033.4 in Calm     82 % 0.0 in 0.0 W/m2 CLR
21:28 -3.3 °F -5.9 °F 1033.4 in Calm     82 % 0.0 in 0.0 W/m2 CLR
21:33 -3.3 °F -5.9 °F 1033.4 in Calm     82 % 0.0 in 0.0 W/m2 CLR
21:38 -3.9 °F -6.5 °F 1033.4 in Calm     82 % 0.0 in 0.0 W/m2 CLR
21:43 -3.9 °F -6.5 °F 1033.4 in Calm     82 % 0.0 in 0.0 W/m2 CLR
21:49 -3.9 °F -6.5 °F 1033.4 in Calm     82 % 0.0 in 0.0 W/m2 CLR
21:54 -3.9 °F -6.5 °F 1033.4 in Calm     82 % 0.0 in 0.0 W/m2 CLR
21:59 -3.9 °F -6.5 °F 1033.4 in Calm     82 % 0.0 in 0.0 W/m2 CLR
22:04 -3.9 °F -6.5 °F 1033.4 in Calm     82 % 0.0 in 0.0 W/m2 CLR
22:14 -3.9 °F -6.2 °F 1033.1 in Calm     84 % 0.0 in 0.0 W/m2 CLR
22:19 -3.9 °F -6.2 °F 1033.1 in Calm     84 % 0.0 in 0.0 W/m2 CLR
22:24 -4.4 °F -6.7 °F 1033.1 in Calm     84 % 0.0 in 0.0 W/m2 CLR
22:29 -4.4 °F -6.9 °F 1033.1 in Calm     83 % 0.0 in 0.0 W/m2 CLR
22:34 -4.4 °F -7.1 °F 1033.1 in Calm     82 % 0.0 in 0.0 W/m2 CLR
22:39 -4.4 °F -6.9 °F 1033.1 in Calm     83 % 0.0 in 0.0 W/m2 CLR
22:44 -3.9 °F -6.3 °F 1033.1 in Calm     83 % 0.0 in 0.0 W/m2 CLR
22:49 -3.3 °F -5.7 °F 1032.7 in Calm     84 % 0.0 in 0.0 W/m2 CLR
22:54 -3.9 °F -6.2 °F 1032.7 in Calm     84 % 0.0 in 0.0 W/m2 CLR
22:59 -3.9 °F -6.1 °F 1032.7 in Calm     85 % 0.0 in 0.0 W/m2 CLR
23:00 -3.9 °F -6.1 °F 1032.7 in Calm     85 % 0.0 in 0.0 W/m2 CLR
23:05 -3.9 °F -6.2 °F 1033.1 in Calm     84 % 0.0 in 0.0 W/m2 CLR
23:10 -3.9 °F -6.2 °F 1033.1 in Calm     84 % 0.0 in 0.0 W/m2 CLR
23:15 -4.4 °F -6.7 °F 1033.1 in Calm     84 % 0.0 in 0.0 W/m2 CLR
23:20 -4.4 °F -6.7 °F 1032.7 in Calm     84 % 0.0 in 0.0 W/m2 CLR
23:25 -4.4 °F -6.7 °F 1032.7 in Calm     84 % 0.0 in 0.0 W/m2 CLR
23:30 -4.4 °F -6.6 °F 1032.7 in Calm     85 % 0.0 in 0.0 W/m2 CLR
23:35 -3.9 °F -6.1 °F 1032.7 in Calm     85 % 0.0 in 0.0 W/m2 CLR
23:40 -3.9 °F -6.1 °F 1033.1 in Calm     85 % 0.0 in 0.0 W/m2 CLR
23:45 -3.9 °F -5.9 °F 1032.7 in Calm     86 % 0.0 in 0.0 W/m2 CLR
23:46 -3.9 °F -5.9 °F 1032.7 in Calm     86 % 0.0 in 0.0 W/m2 CLR
23:51 -3.9 °F -5.9 °F 1032.7 in Calm     86 % 0.0 in 0.0 W/m2 CLR
23:56 -4.4 °F -6.6 °F 1032.7 in Calm     85 % 0.0 in 0.0 W/m2 CLR
Lo Temps de Massalio
Compliments of Weather Underground - 1.25 mb